sensor_id;sensor_type;location;lat;lon;timestamp;temperature;humidity
429;DHT22;201;48.758;9.290;2023-06-10T00:01:44;18.90;1.00
429;DHT22;201;48.758;9.290;2023-06-10T00:04:14;18.90;1.00
429;DHT22;201;48.758;9.290;2023-06-10T00:06:40;18.90;1.00
429;DHT22;201;48.758;9.290;2023-06-10T00:09:06;18.80;1.00
429;DHT22;201;48.758;9.290;2023-06-10T00:11:35;18.80;1.00
429;DHT22;201;48.758;9.290;2023-06-10T00:14:01;18.60;1.00
429;DHT22;201;48.758;9.290;2023-06-10T00:16:27;18.50;1.00
429;DHT22;201;48.758;9.290;2023-06-10T00:18:52;18.40;1.00
429;DHT22;201;48.758;9.290;2023-06-10T00:21:21;18.40;1.00
429;DHT22;201;48.758;9.290;2023-06-10T00:23:47;18.30;1.00
429;DHT22;201;48.758;9.290;2023-06-10T00:26:12;18.20;1.00
429;DHT22;201;48.758;9.290;2023-06-10T00:28:38;18.20;1.00
429;DHT22;201;48.758;9.290;2023-06-10T00:31:03;18.10;1.00
429;DHT22;201;48.758;9.290;2023-06-10T00:33:29;18.10;1.00
429;DHT22;201;48.758;9.290;2023-06-10T00:35:55;18.20;1.00
429;DHT22;201;48.758;9.290;2023-06-10T00:38:20;18.20;1.00
429;DHT22;201;48.758;9.290;2023-06-10T00:40:46;18.20;1.00
429;DHT22;201;48.758;9.290;2023-06-10T00:43:11;18.30;1.00
429;DHT22;201;48.758;9.290;2023-06-10T00:45:37;18.30;1.00
429;DHT22;201;48.758;9.290;2023-06-10T00:48:03;18.40;1.00
429;DHT22;201;48.758;9.290;2023-06-10T00:50:29;18.40;1.00
429;DHT22;201;48.758;9.290;2023-06-10T00:52:56;18.40;1.00
429;DHT22;201;48.758;9.290;2023-06-10T00:55:22;18.40;1.00
429;DHT22;201;48.758;9.290;2023-06-10T00:57:48;18.50;1.00
429;DHT22;201;48.758;9.290;2023-06-10T01:00:15;18.50;1.00
429;DHT22;201;48.758;9.290;2023-06-10T01:02:41;18.50;1.00
429;DHT22;201;48.758;9.290;2023-06-10T01:05:08;18.50;1.00
429;DHT22;201;48.758;9.290;2023-06-10T01:07:43;18.50;1.00
429;DHT22;201;48.758;9.290;2023-06-10T01:10:36;18.40;1.00
429;DHT22;201;48.758;9.290;2023-06-10T01:13:06;18.40;1.00
429;DHT22;201;48.758;9.290;2023-06-10T01:15:34;18.40;1.00
429;DHT22;201;48.758;9.290;2023-06-10T01:18:05;18.30;1.00
429;DHT22;201;48.758;9.290;2023-06-10T01:20:34;18.40;1.00
429;DHT22;201;48.758;9.290;2023-06-10T01:23:01;18.40;1.00
429;DHT22;201;48.758;9.290;2023-06-10T01:25:28;18.40;1.00
429;DHT22;201;48.758;9.290;2023-06-10T01:31:23;18.20;1.00
429;DHT22;201;48.758;9.290;2023-06-10T01:33:59;18.10;1.00
429;DHT22;201;48.758;9.290;2023-06-10T01:36:26;18.10;1.00
429;DHT22;201;48.758;9.290;2023-06-10T01:38:53;18.20;1.00
429;DHT22;201;48.758;9.290;2023-06-10T01:41:19;18.20;1.00
429;DHT22;201;48.758;9.290;2023-06-10T01:43:47;18.20;1.00
429;DHT22;201;48.758;9.290;2023-06-10T01:46:12;18.10;1.00
429;DHT22;201;48.758;9.290;2023-06-10T01:48:38;18.10;1.00
429;DHT22;201;48.758;9.290;2023-06-10T01:51:04;18.00;1.00
429;DHT22;201;48.758;9.290;2023-06-10T01:53:30;18.00;1.00
429;DHT22;201;48.758;9.290;2023-06-10T01:55:55;17.90;1.00
429;DHT22;201;48.758;9.290;2023-06-10T01:58:21;17.90;1.00
429;DHT22;201;48.758;9.290;2023-06-10T02:00:46;17.90;1.00
429;DHT22;201;48.758;9.290;2023-06-10T02:03:12;18.00;1.00
429;DHT22;201;48.758;9.290;2023-06-10T02:05:38;17.90;1.00
429;DHT22;201;48.758;9.290;2023-06-10T02:08:04;17.90;1.00
429;DHT22;201;48.758;9.290;2023-06-10T02:10:30;17.80;1.00
429;DHT22;201;48.758;9.290;2023-06-10T02:12:55;17.80;1.00
429;DHT22;201;48.758;9.290;2023-06-10T02:15:21;17.80;1.00
429;DHT22;201;48.758;9.290;2023-06-10T02:17:46;17.80;1.00
429;DHT22;201;48.758;9.290;2023-06-10T02:20:12;17.80;1.00
429;DHT22;201;48.758;9.290;2023-06-10T02:22:38;17.80;1.00
429;DHT22;201;48.758;9.290;2023-06-10T02:25:05;17.80;1.00
429;DHT22;201;48.758;9.290;2023-06-10T02:27:30;17.80;1.00
429;DHT22;201;48.758;9.290;2023-06-10T02:29:59;17.70;1.00
429;DHT22;201;48.758;9.290;2023-06-10T02:32:25;17.70;1.00
429;DHT22;201;48.758;9.290;2023-06-10T02:34:50;17.70;1.00
429;DHT22;201;48.758;9.290;2023-06-10T02:37:16;17.70;1.00
429;DHT22;201;48.758;9.290;2023-06-10T02:39:42;17.70;1.00
429;DHT22;201;48.758;9.290;2023-06-10T02:42:07;17.70;1.00
429;DHT22;201;48.758;9.290;2023-06-10T02:44:33;17.60;1.00
429;DHT22;201;48.758;9.290;2023-06-10T02:46:59;17.60;1.00
429;DHT22;201;48.758;9.290;2023-06-10T02:49:25;17.60;1.00
429;DHT22;201;48.758;9.290;2023-06-10T02:51:53;17.60;1.00
429;DHT22;201;48.758;9.290;2023-06-10T02:54:19;17.60;1.00
429;DHT22;201;48.758;9.290;2023-06-10T02:56:45;17.60;1.00
429;DHT22;201;48.758;9.290;2023-06-10T02:59:13;17.60;1.00
429;DHT22;201;48.758;9.290;2023-06-10T03:01:38;17.50;1.00
429;DHT22;201;48.758;9.290;2023-06-10T03:04:05;17.50;1.00
429;DHT22;201;48.758;9.290;2023-06-10T03:06:31;17.40;1.00
429;DHT22;201;48.758;9.290;2023-06-10T03:09:00;17.40;1.00
429;DHT22;201;48.758;9.290;2023-06-10T03:11:25;17.30;1.00
429;DHT22;201;48.758;9.290;2023-06-10T03:13:51;17.20;1.00
429;DHT22;201;48.758;9.290;2023-06-10T03:16:19;17.20;1.00
429;DHT22;201;48.758;9.290;2023-06-10T03:18:44;17.10;1.00
429;DHT22;201;48.758;9.290;2023-06-10T03:21:10;17.10;1.00
429;DHT22;201;48.758;9.290;2023-06-10T03:23:37;17.10;1.00
429;DHT22;201;48.758;9.290;2023-06-10T03:26:03;17.10;1.00
429;DHT22;201;48.758;9.290;2023-06-10T03:28:30;17.10;1.00
429;DHT22;201;48.758;9.290;2023-06-10T03:30:55;17.00;1.00
429;DHT22;201;48.758;9.290;2023-06-10T03:33:21;17.00;1.00
429;DHT22;201;48.758;9.290;2023-06-10T03:35:47;16.90;1.00
429;DHT22;201;48.758;9.290;2023-06-10T03:38:12;16.90;1.00
429;DHT22;201;48.758;9.290;2023-06-10T03:40:38;16.80;1.00
429;DHT22;201;48.758;9.290;2023-06-10T03:43:03;16.80;1.00
429;DHT22;201;48.758;9.290;2023-06-10T03:45:29;16.70;1.00
429;DHT22;201;48.758;9.290;2023-06-10T03:47:54;16.70;1.00
429;DHT22;201;48.758;9.290;2023-06-10T03:50:21;16.80;1.00
429;DHT22;201;48.758;9.290;2023-06-10T03:52:47;16.80;1.00
429;DHT22;201;48.758;9.290;2023-06-10T03:55:13;16.80;1.00
429;DHT22;201;48.758;9.290;2023-06-10T03:57:39;16.80;1.00
429;DHT22;201;48.758;9.290;2023-06-10T04:00:05;16.90;1.00
429;DHT22;201;48.758;9.290;2023-06-10T04:02:36;16.90;1.00
429;DHT22;201;48.758;9.290;2023-06-10T04:05:02;16.90;1.00
429;DHT22;201;48.758;9.290;2023-06-10T04:07:27;16.90;1.00
429;DHT22;201;48.758;9.290;2023-06-10T04:09:53;16.90;1.00
429;DHT22;201;48.758;9.290;2023-06-10T04:12:19;16.90;1.00
429;DHT22;201;48.758;9.290;2023-06-10T04:14:44;16.90;1.00
429;DHT22;201;48.758;9.290;2023-06-10T04:17:10;17.00;1.00
429;DHT22;201;48.758;9.290;2023-06-10T04:19:36;17.00;1.00
429;DHT22;201;48.758;9.290;2023-06-10T04:22:01;17.00;1.00
429;DHT22;201;48.758;9.290;2023-06-10T04:24:30;17.10;1.00
429;DHT22;201;48.758;9.290;2023-06-10T04:26:56;17.20;1.00
429;DHT22;201;48.758;9.290;2023-06-10T04:29:21;17.30;1.00
429;DHT22;201;48.758;9.290;2023-06-10T04:31:47;17.30;1.00
429;DHT22;201;48.758;9.290;2023-06-10T04:34:12;17.40;1.00
429;DHT22;201;48.758;9.290;2023-06-10T04:36:38;17.40;1.00
429;DHT22;201;48.758;9.290;2023-06-10T04:39:04;17.50;1.00
429;DHT22;201;48.758;9.290;2023-06-10T04:41:31;17.50;1.00
429;DHT22;201;48.758;9.290;2023-06-10T04:43:56;17.60;1.00
429;DHT22;201;48.758;9.290;2023-06-10T04:46:23;17.60;1.00
429;DHT22;201;48.758;9.290;2023-06-10T04:48:48;17.70;1.00
429;DHT22;201;48.758;9.290;2023-06-10T04:51:14;17.90;1.00
429;DHT22;201;48.758;9.290;2023-06-10T04:53:39;18.10;1.00
429;DHT22;201;48.758;9.290;2023-06-10T04:56:05;18.20;1.00
429;DHT22;201;48.758;9.290;2023-06-10T04:58:31;18.30;1.00
429;DHT22;201;48.758;9.290;2023-06-10T05:00:56;18.50;1.00
429;DHT22;201;48.758;9.290;2023-06-10T05:03:22;18.70;1.00
429;DHT22;201;48.758;9.290;2023-06-10T05:05:47;18.90;1.00
429;DHT22;201;48.758;9.290;2023-06-10T05:08:12;19.10;1.00
429;DHT22;201;48.758;9.290;2023-06-10T05:10:38;19.20;1.00
429;DHT22;201;48.758;9.290;2023-06-10T05:13:03;19.50;1.00
429;DHT22;201;48.758;9.290;2023-06-10T05:15:29;20.00;1.00
429;DHT22;201;48.758;9.290;2023-06-10T05:17:57;20.40;1.00
429;DHT22;201;48.758;9.290;2023-06-10T05:20:23;20.70;1.00
429;DHT22;201;48.758;9.290;2023-06-10T05:22:50;20.90;1.00
429;DHT22;201;48.758;9.290;2023-06-10T05:25:16;20.80;1.00
429;DHT22;201;48.758;9.290;2023-06-10T05:27:42;20.80;1.00
429;DHT22;201;48.758;9.290;2023-06-10T05:30:09;20.90;1.00
429;DHT22;201;48.758;9.290;2023-06-10T05:32:35;21.10;1.00
429;DHT22;201;48.758;9.290;2023-06-10T05:35:00;21.30;1.00
429;DHT22;201;48.758;9.290;2023-06-10T05:37:26;21.90;1.00
429;DHT22;201;48.758;9.290;2023-06-10T05:39:52;22.80;1.00
429;DHT22;201;48.758;9.290;2023-06-10T05:42:17;23.50;1.00
429;DHT22;201;48.758;9.290;2023-06-10T05:44:43;24.80;1.00
429;DHT22;201;48.758;9.290;2023-06-10T05:47:08;26.10;1.00
429;DHT22;201;48.758;9.290;2023-06-10T05:49:34;26.80;1.00
429;DHT22;201;48.758;9.290;2023-06-10T05:52:00;27.60;1.00
429;DHT22;201;48.758;9.290;2023-06-10T05:54:26;28.50;1.00
429;DHT22;201;48.758;9.290;2023-06-10T05:56:52;29.20;1.00
429;DHT22;201;48.758;9.290;2023-06-10T05:59:17;30.00;1.00
429;DHT22;201;48.758;9.290;2023-06-10T06:01:43;30.60;1.00
429;DHT22;201;48.758;9.290;2023-06-10T06:04:08;30.80;1.00
429;DHT22;201;48.758;9.290;2023-06-10T06:06:35;31.30;1.00
429;DHT22;201;48.758;9.290;2023-06-10T06:09:01;30.70;1.00
429;DHT22;201;48.758;9.290;2023-06-10T06:11:26;30.20;1.00
429;DHT22;201;48.758;9.290;2023-06-10T06:13:52;29.40;1.00
429;DHT22;201;48.758;9.290;2023-06-10T06:16:18;28.90;1.00
429;DHT22;201;48.758;9.290;2023-06-10T06:18:43;29.10;1.00
429;DHT22;201;48.758;9.290;2023-06-10T06:21:09;29.70;1.00
429;DHT22;201;48.758;9.290;2023-06-10T06:23:34;30.20;1.00
429;DHT22;201;48.758;9.290;2023-06-10T06:26:00;31.10;1.00
429;DHT22;201;48.758;9.290;2023-06-10T06:28:26;32.00;1.00
429;DHT22;201;48.758;9.290;2023-06-10T06:30:57;32.70;1.00
429;DHT22;201;48.758;9.290;2023-06-10T06:33:22;33.00;1.00
429;DHT22;201;48.758;9.290;2023-06-10T06:35:48;33.70;1.00
429;DHT22;201;48.758;9.290;2023-06-10T06:38:14;34.20;1.00
429;DHT22;201;48.758;9.290;2023-06-10T06:40:39;35.00;1.00
429;DHT22;201;48.758;9.290;2023-06-10T06:43:05;35.60;1.00
429;DHT22;201;48.758;9.290;2023-06-10T06:45:31;36.10;1.00
429;DHT22;201;48.758;9.290;2023-06-10T06:47:56;36.20;1.00
429;DHT22;201;48.758;9.290;2023-06-10T06:50:22;36.40;1.00
429;DHT22;201;48.758;9.290;2023-06-10T06:52:47;36.80;1.00
429;DHT22;201;48.758;9.290;2023-06-10T06:55:13;36.40;1.00
429;DHT22;201;48.758;9.290;2023-06-10T06:57:38;36.60;1.00
429;DHT22;201;48.758;9.290;2023-06-10T07:00:04;37.30;1.00
429;DHT22;201;48.758;9.290;2023-06-10T07:02:30;37.40;1.00
429;DHT22;201;48.758;9.290;2023-06-10T07:04:57;37.90;1.00
429;DHT22;201;48.758;9.290;2023-06-10T07:07:24;38.70;1.00
429;DHT22;201;48.758;9.290;2023-06-10T07:09:49;39.00;1.00
429;DHT22;201;48.758;9.290;2023-06-10T07:12:15;38.60;1.00
429;DHT22;201;48.758;9.290;2023-06-10T07:14:41;38.50;1.00
429;DHT22;201;48.758;9.290;2023-06-10T07:17:06;38.50;1.00
429;DHT22;201;48.758;9.290;2023-06-10T07:19:32;38.60;1.00
429;DHT22;201;48.758;9.290;2023-06-10T07:21:57;38.70;1.00
429;DHT22;201;48.758;9.290;2023-06-10T07:24:23;39.00;1.00
429;DHT22;201;48.758;9.290;2023-06-10T07:26:48;39.30;1.00
429;DHT22;201;48.758;9.290;2023-06-10T07:29:14;39.50;1.00
429;DHT22;201;48.758;9.290;2023-06-10T07:31:41;39.90;1.00
429;DHT22;201;48.758;9.290;2023-06-10T07:34:06;40.60;1.00
429;DHT22;201;48.758;9.290;2023-06-10T07:36:32;40.50;1.00
429;DHT22;201;48.758;9.290;2023-06-10T07:38:57;40.20;1.00
429;DHT22;201;48.758;9.290;2023-06-10T07:41:23;39.30;1.00
429;DHT22;201;48.758;9.290;2023-06-10T07:43:51;38.90;1.00
429;DHT22;201;48.758;9.290;2023-06-10T07:46:22;38.20;1.00
429;DHT22;201;48.758;9.290;2023-06-10T07:48:48;36.70;1.00
429;DHT22;201;48.758;9.290;2023-06-10T07:51:15;38.00;1.00
429;DHT22;201;48.758;9.290;2023-06-10T07:53:41;38.90;1.00
429;DHT22;201;48.758;9.290;2023-06-10T07:56:06;40.30;1.00
429;DHT22;201;48.758;9.290;2023-06-10T07:58:32;40.70;1.00
429;DHT22;201;48.758;9.290;2023-06-10T08:00:57;41.00;1.00
429;DHT22;201;48.758;9.290;2023-06-10T08:03:23;41.90;1.00
429;DHT22;201;48.758;9.290;2023-06-10T08:05:48;42.50;1.00
429;DHT22;201;48.758;9.290;2023-06-10T08:08:14;43.10;1.00
429;DHT22;201;48.758;9.290;2023-06-10T08:10:39;41.80;1.00
429;DHT22;201;48.758;9.290;2023-06-10T08:13:05;40.90;1.00
429;DHT22;201;48.758;9.290;2023-06-10T08:15:30;40.60;1.00
429;DHT22;201;48.758;9.290;2023-06-10T08:17:56;41.30;1.00
429;DHT22;201;48.758;9.290;2023-06-10T08:20:24;41.80;1.00
429;DHT22;201;48.758;9.290;2023-06-10T08:22:50;42.40;1.00
429;DHT22;201;48.758;9.290;2023-06-10T08:25:16;43.10;1.00
429;DHT22;201;48.758;9.290;2023-06-10T08:27:41;43.00;1.00
429;DHT22;201;48.758;9.290;2023-06-10T08:30:07;43.40;1.00
429;DHT22;201;48.758;9.290;2023-06-10T08:32:33;42.20;1.00
429;DHT22;201;48.758;9.290;2023-06-10T08:34:59;40.20;1.00
429;DHT22;201;48.758;9.290;2023-06-10T08:37:24;40.00;1.00
429;DHT22;201;48.758;9.290;2023-06-10T08:39:50;41.00;1.00
429;DHT22;201;48.758;9.290;2023-06-10T08:42:28;42.10;1.00
429;DHT22;201;48.758;9.290;2023-06-10T08:44:55;42.50;1.00
429;DHT22;201;48.758;9.290;2023-06-10T08:47:23;41.40;1.00
429;DHT22;201;48.758;9.290;2023-06-10T08:49:51;39.60;1.00
429;DHT22;201;48.758;9.290;2023-06-10T08:52:19;40.50;1.00
429;DHT22;201;48.758;9.290;2023-06-10T08:54:49;41.50;1.00
429;DHT22;201;48.758;9.290;2023-06-10T08:57:18;42.60;1.00
429;DHT22;201;48.758;9.290;2023-06-10T08:59:46;42.30;1.00
429;DHT22;201;48.758;9.290;2023-06-10T09:02:14;42.40;1.00
429;DHT22;201;48.758;9.290;2023-06-10T09:04:42;41.80;1.00
429;DHT22;201;48.758;9.290;2023-06-10T09:07:09;40.60;1.00
429;DHT22;201;48.758;9.290;2023-06-10T09:09:36;38.10;1.00
429;DHT22;201;48.758;9.290;2023-06-10T09:12:02;37.10;1.00
429;DHT22;201;48.758;9.290;2023-06-10T09:14:28;38.20;1.00
429;DHT22;201;48.758;9.290;2023-06-10T09:16:54;38.50;1.00
429;DHT22;201;48.758;9.290;2023-06-10T09:19:23;38.80;1.00
429;DHT22;201;48.758;9.290;2023-06-10T09:21:50;37.90;1.00
429;DHT22;201;48.758;9.290;2023-06-10T09:24:16;37.80;1.00
429;DHT22;201;48.758;9.290;2023-06-10T09:26:43;39.00;1.00
429;DHT22;201;48.758;9.290;2023-06-10T09:29:08;40.30;1.00
429;DHT22;201;48.758;9.290;2023-06-10T09:31:35;39.80;1.00
429;DHT22;201;48.758;9.290;2023-06-10T09:36:33;39.40;1.00
429;DHT22;201;48.758;9.290;2023-06-10T09:38:58;38.90;1.00
429;DHT22;201;48.758;9.290;2023-06-10T09:41:34;38.90;1.00
429;DHT22;201;48.758;9.290;2023-06-10T09:44:01;39.50;1.00
429;DHT22;201;48.758;9.290;2023-06-10T09:46:31;41.30;1.00
429;DHT22;201;48.758;9.290;2023-06-10T09:48:58;40.40;1.00
429;DHT22;201;48.758;9.290;2023-06-10T09:51:24;39.60;1.00
429;DHT22;201;48.758;9.290;2023-06-10T09:53:53;39.80;1.00
429;DHT22;201;48.758;9.290;2023-06-10T09:56:18;39.70;1.00
429;DHT22;201;48.758;9.290;2023-06-10T09:58:45;39.20;1.00
429;DHT22;201;48.758;9.290;2023-06-10T10:01:13;40.00;1.00
429;DHT22;201;48.758;9.290;2023-06-10T10:03:50;40.10;1.00
429;DHT22;201;48.758;9.290;2023-06-10T10:06:17;39.60;1.00
429;DHT22;201;48.758;9.290;2023-06-10T10:08:48;37.30;1.00
429;DHT22;201;48.758;9.290;2023-06-10T10:11:19;35.80;1.00
429;DHT22;201;48.758;9.290;2023-06-10T10:13:50;34.30;1.00
429;DHT22;201;48.758;9.290;2023-06-10T10:16:30;34.20;1.00
429;DHT22;201;48.758;9.290;2023-06-10T10:19:11;35.30;1.00
429;DHT22;201;48.758;9.290;2023-06-10T10:21:47;35.40;1.00
429;DHT22;201;48.758;9.290;2023-06-10T10:24:23;36.60;1.00
429;DHT22;201;48.758;9.290;2023-06-10T10:26:53;37.80;1.00
429;DHT22;201;48.758;9.290;2023-06-10T10:29:31;39.10;1.00
429;DHT22;201;48.758;9.290;2023-06-10T10:31:59;39.70;1.00
429;DHT22;201;48.758;9.290;2023-06-10T10:35:01;40.10;1.00
429;DHT22;201;48.758;9.290;2023-06-10T10:37:31;40.30;1.00
429;DHT22;201;48.758;9.290;2023-06-10T10:39:57;39.50;1.00
429;DHT22;201;48.758;9.290;2023-06-10T10:42:24;38.90;1.00
429;DHT22;201;48.758;9.290;2023-06-10T10:44:50;38.10;1.00
429;DHT22;201;48.758;9.290;2023-06-10T10:47:20;35.70;1.00
429;DHT22;201;48.758;9.290;2023-06-10T10:49:48;34.50;1.00
429;DHT22;201;48.758;9.290;2023-06-10T10:52:16;32.20;1.00
429;DHT22;201;48.758;9.290;2023-06-10T10:54:46;31.60;1.00
429;DHT22;201;48.758;9.290;2023-06-10T10:57:18;31.40;1.00
429;DHT22;201;48.758;9.290;2023-06-10T10:59:57;31.20;1.00
429;DHT22;201;48.758;9.290;2023-06-10T11:02:45;31.20;1.00
429;DHT22;201;48.758;9.290;2023-06-10T11:05:15;30.80;1.00
429;DHT22;201;48.758;9.290;2023-06-10T11:07:52;30.50;1.00
429;DHT22;201;48.758;9.290;2023-06-10T11:10:20;30.30;1.00
429;DHT22;201;48.758;9.290;2023-06-10T11:12:54;30.40;1.00
429;DHT22;201;48.758;9.290;2023-06-10T11:15:27;30.60;1.00
429;DHT22;201;48.758;9.290;2023-06-10T11:23:32;29.30;1.00
429;DHT22;201;48.758;9.290;2023-06-10T11:31:21;29.20;1.00
429;DHT22;201;48.758;9.290;2023-06-10T11:33:48;28.90;1.00
429;DHT22;201;48.758;9.290;2023-06-10T11:36:17;28.70;1.00
429;DHT22;201;48.758;9.290;2023-06-10T11:38:42;28.50;1.00
429;DHT22;201;48.758;9.290;2023-06-10T11:41:08;28.40;1.00
429;DHT22;201;48.758;9.290;2023-06-10T11:43:35;28.80;1.00
429;DHT22;201;48.758;9.290;2023-06-10T11:46:01;29.00;1.00
429;DHT22;201;48.758;9.290;2023-06-10T11:48:27;29.20;1.00
429;DHT22;201;48.758;9.290;2023-06-10T11:50:55;28.80;1.00
429;DHT22;201;48.758;9.290;2023-06-10T11:53:21;28.80;1.00
429;DHT22;201;48.758;9.290;2023-06-10T11:55:48;28.90;1.00
429;DHT22;201;48.758;9.290;2023-06-10T11:58:18;28.70;1.00
429;DHT22;201;48.758;9.290;2023-06-10T12:00:48;28.70;1.00
429;DHT22;201;48.758;9.290;2023-06-10T12:03:14;29.00;1.00
429;DHT22;201;48.758;9.290;2023-06-10T12:05:40;28.90;1.00
429;DHT22;201;48.758;9.290;2023-06-10T12:08:12;29.10;1.00
429;DHT22;201;48.758;9.290;2023-06-10T12:10:41;28.90;1.00
429;DHT22;201;48.758;9.290;2023-06-10T12:13:09;29.10;1.00
429;DHT22;201;48.758;9.290;2023-06-10T12:15:34;29.00;1.00
429;DHT22;201;48.758;9.290;2023-06-10T12:18:01;29.00;1.00
429;DHT22;201;48.758;9.290;2023-06-10T12:20:31;28.70;1.00
429;DHT22;201;48.758;9.290;2023-06-10T12:23:00;28.60;1.00
429;DHT22;201;48.758;9.290;2023-06-10T12:25:33;28.90;1.00
429;DHT22;201;48.758;9.290;2023-06-10T12:27:59;29.10;1.00
429;DHT22;201;48.758;9.290;2023-06-10T12:30:26;28.80;1.00
429;DHT22;201;48.758;9.290;2023-06-10T12:32:52;28.30;1.00
429;DHT22;201;48.758;9.290;2023-06-10T12:35:23;28.10;1.00
429;DHT22;201;48.758;9.290;2023-06-10T12:38:02;28.30;1.00
429;DHT22;201;48.758;9.290;2023-06-10T12:40:31;28.50;1.00
429;DHT22;201;48.758;9.290;2023-06-10T12:42:58;28.70;1.00
429;DHT22;201;48.758;9.290;2023-06-10T12:45:42;28.70;1.00
429;DHT22;201;48.758;9.290;2023-06-10T12:48:21;28.80;1.00
429;DHT22;201;48.758;9.290;2023-06-10T12:50:57;28.70;1.00
429;DHT22;201;48.758;9.290;2023-06-10T12:53:24;28.50;1.00
429;DHT22;201;48.758;9.290;2023-06-10T12:55:50;28.40;1.00
429;DHT22;201;48.758;9.290;2023-06-10T12:58:16;28.30;1.00
429;DHT22;201;48.758;9.290;2023-06-10T13:00:42;27.80;1.00
429;DHT22;201;48.758;9.290;2023-06-10T13:03:09;27.40;1.00
429;DHT22;201;48.758;9.290;2023-06-10T13:05:36;27.40;1.00
429;DHT22;201;48.758;9.290;2023-06-10T13:08:06;27.50;1.00
429;DHT22;201;48.758;9.290;2023-06-10T13:10:33;27.90;1.00
429;DHT22;201;48.758;9.290;2023-06-10T13:13:00;28.20;1.00
429;DHT22;201;48.758;9.290;2023-06-10T13:15:26;28.10;1.00
429;DHT22;201;48.758;9.290;2023-06-10T13:17:52;28.20;1.00
429;DHT22;201;48.758;9.290;2023-06-10T13:20:18;28.00;1.00
429;DHT22;201;48.758;9.290;2023-06-10T13:22:44;27.90;1.00
429;DHT22;201;48.758;9.290;2023-06-10T13:25:10;28.00;1.00
429;DHT22;201;48.758;9.290;2023-06-10T13:27:36;28.20;1.00
429;DHT22;201;48.758;9.290;2023-06-10T13:30:06;28.40;1.00
429;DHT22;201;48.758;9.290;2023-06-10T13:32:31;28.70;1.00
429;DHT22;201;48.758;9.290;2023-06-10T13:34:57;28.90;1.00
429;DHT22;201;48.758;9.290;2023-06-10T13:37:23;29.00;1.00
429;DHT22;201;48.758;9.290;2023-06-10T13:39:48;29.10;1.00
429;DHT22;201;48.758;9.290;2023-06-10T13:42:19;29.20;1.00
429;DHT22;201;48.758;9.290;2023-06-10T13:44:46;29.10;1.00
429;DHT22;201;48.758;9.290;2023-06-10T13:47:13;29.10;1.00
429;DHT22;201;48.758;9.290;2023-06-10T13:49:38;29.00;1.00
429;DHT22;201;48.758;9.290;2023-06-10T13:52:04;29.10;1.00
429;DHT22;201;48.758;9.290;2023-06-10T13:54:30;29.40;1.00
429;DHT22;201;48.758;9.290;2023-06-10T13:56:55;29.60;1.00
429;DHT22;201;48.758;9.290;2023-06-10T13:59:21;29.50;1.00
429;DHT22;201;48.758;9.290;2023-06-10T14:01:46;29.20;1.00
429;DHT22;201;48.758;9.290;2023-06-10T14:04:12;29.00;1.00
429;DHT22;201;48.758;9.290;2023-06-10T14:06:38;28.80;1.00
429;DHT22;201;48.758;9.290;2023-06-10T14:09:03;28.20;1.00
429;DHT22;201;48.758;9.290;2023-06-10T14:11:29;27.80;1.00
429;DHT22;201;48.758;9.290;2023-06-10T14:13:55;28.00;1.00
429;DHT22;201;48.758;9.290;2023-06-10T14:16:24;28.30;1.00
429;DHT22;201;48.758;9.290;2023-06-10T14:18:50;28.70;1.00
429;DHT22;201;48.758;9.290;2023-06-10T14:21:16;29.00;1.00
429;DHT22;201;48.758;9.290;2023-06-10T14:23:42;29.10;1.00
429;DHT22;201;48.758;9.290;2023-06-10T14:26:09;29.10;1.00
429;DHT22;201;48.758;9.290;2023-06-10T14:28:34;29.10;1.00
429;DHT22;201;48.758;9.290;2023-06-10T14:31:00;29.00;1.00
429;DHT22;201;48.758;9.290;2023-06-10T14:33:25;28.90;1.00
429;DHT22;201;48.758;9.290;2023-06-10T14:35:51;28.80;1.00
429;DHT22;201;48.758;9.290;2023-06-10T14:38:16;28.80;1.00
429;DHT22;201;48.758;9.290;2023-06-10T14:40:42;28.80;1.00
429;DHT22;201;48.758;9.290;2023-06-10T14:43:07;28.70;1.00
429;DHT22;201;48.758;9.290;2023-06-10T14:45:36;28.70;1.00
429;DHT22;201;48.758;9.290;2023-06-10T14:48:03;28.60;1.00
429;DHT22;201;48.758;9.290;2023-06-10T14:50:28;28.50;1.00
429;DHT22;201;48.758;9.290;2023-06-10T14:52:54;28.40;1.00
429;DHT22;201;48.758;9.290;2023-06-10T14:55:19;28.30;1.00
429;DHT22;201;48.758;9.290;2023-06-10T14:57:45;28.30;1.00
429;DHT22;201;48.758;9.290;2023-06-10T15:00:11;28.10;1.00
429;DHT22;201;48.758;9.290;2023-06-10T15:02:40;28.10;1.00
429;DHT22;201;48.758;9.290;2023-06-10T15:05:06;28.10;1.00
429;DHT22;201;48.758;9.290;2023-06-10T15:07:32;28.10;1.00
429;DHT22;201;48.758;9.290;2023-06-10T15:09:57;28.20;1.00
429;DHT22;201;48.758;9.290;2023-06-10T15:12:22;28.10;1.00
429;DHT22;201;48.758;9.290;2023-06-10T15:14:48;28.00;1.00
429;DHT22;201;48.758;9.290;2023-06-10T15:17:14;28.00;1.00
429;DHT22;201;48.758;9.290;2023-06-10T15:19:39;27.90;1.00
429;DHT22;201;48.758;9.290;2023-06-10T15:22:05;27.60;1.00
429;DHT22;201;48.758;9.290;2023-06-10T15:24:30;27.50;1.00
429;DHT22;201;48.758;9.290;2023-06-10T15:26:56;27.40;1.00
429;DHT22;201;48.758;9.290;2023-06-10T15:29:21;27.20;1.00
429;DHT22;201;48.758;9.290;2023-06-10T15:31:47;27.10;1.00
429;DHT22;201;48.758;9.290;2023-06-10T15:34:12;27.20;1.00
429;DHT22;201;48.758;9.290;2023-06-10T15:36:38;27.30;1.00
429;DHT22;201;48.758;9.290;2023-06-10T15:39:04;27.50;1.00
429;DHT22;201;48.758;9.290;2023-06-10T15:41:32;27.50;1.00
429;DHT22;201;48.758;9.290;2023-06-10T15:43:57;27.50;1.00
429;DHT22;201;48.758;9.290;2023-06-10T15:46:28;27.50;1.00
429;DHT22;201;48.758;9.290;2023-06-10T15:48:55;27.50;1.00
429;DHT22;201;48.758;9.290;2023-06-10T15:51:20;27.30;1.00
429;DHT22;201;48.758;9.290;2023-06-10T15:53:46;27.10;1.00
429;DHT22;201;48.758;9.290;2023-06-10T15:56:12;26.90;1.00
429;DHT22;201;48.758;9.290;2023-06-10T15:58:38;26.90;1.00
429;DHT22;201;48.758;9.290;2023-06-10T16:01:04;26.90;1.00
429;DHT22;201;48.758;9.290;2023-06-10T16:03:30;27.00;1.00
429;DHT22;201;48.758;9.290;2023-06-10T16:05:55;27.10;1.00
429;DHT22;201;48.758;9.290;2023-06-10T16:08:21;27.10;1.00
429;DHT22;201;48.758;9.290;2023-06-10T16:10:46;27.10;1.00
429;DHT22;201;48.758;9.290;2023-06-10T16:13:12;27.20;1.00
429;DHT22;201;48.758;9.290;2023-06-10T16:15:37;27.30;1.00
429;DHT22;201;48.758;9.290;2023-06-10T16:18:03;27.40;1.00
429;DHT22;201;48.758;9.290;2023-06-10T16:20:28;27.50;1.00
429;DHT22;201;48.758;9.290;2023-06-10T16:22:54;27.50;1.00
429;DHT22;201;48.758;9.290;2023-06-10T16:25:19;27.70;1.00
429;DHT22;201;48.758;9.290;2023-06-10T16:27:45;27.80;1.00
429;DHT22;201;48.758;9.290;2023-06-10T16:30:11;27.80;1.00
429;DHT22;201;48.758;9.290;2023-06-10T16:32:38;27.60;1.00
429;DHT22;201;48.758;9.290;2023-06-10T16:35:04;27.50;1.00
429;DHT22;201;48.758;9.290;2023-06-10T16:37:29;27.20;1.00
429;DHT22;201;48.758;9.290;2023-06-10T16:39:55;27.10;1.00
429;DHT22;201;48.758;9.290;2023-06-10T16:42:20;27.10;1.00
429;DHT22;201;48.758;9.290;2023-06-10T16:44:46;26.90;1.00
429;DHT22;201;48.758;9.290;2023-06-10T16:47:11;27.00;1.00
429;DHT22;201;48.758;9.290;2023-06-10T16:49:37;27.00;1.00
429;DHT22;201;48.758;9.290;2023-06-10T16:52:04;27.00;1.00
429;DHT22;201;48.758;9.290;2023-06-10T16:54:30;27.00;1.00
429;DHT22;201;48.758;9.290;2023-06-10T16:56:55;27.00;1.00
429;DHT22;201;48.758;9.290;2023-06-10T16:59:21;27.20;1.00
429;DHT22;201;48.758;9.290;2023-06-10T17:01:46;27.30;1.00
429;DHT22;201;48.758;9.290;2023-06-10T17:04:12;27.30;1.00
429;DHT22;201;48.758;9.290;2023-06-10T17:06:37;27.20;1.00